Flight Track Log - Related Links

Times and Time Zones

All times are in EDT time to prevent confusion due to time zone crossing. See the EJA396 flight status page for this flight to view local times or setup timezone preferences in your user account.

Time Position Orientation Groundspeed Altitude Reporting Facility
EDT Latitude Longitude Course Direction KTS MPH feet Rate Location/Type
Fri 12:29:38 PM 40.8833 -74.0500 339° North 171 197 2,000  Level New York TRACON
Fri 12:30:32 PM 40.9167 -74.0667 339° North 202 232 3,500 2,348 Climbing New York TRACON
Fri 12:31:33 PM 40.9167 -74.1667 270° West 276 318 6,500 3,100 Climbing New York TRACON
Fri 12:32:32 PM 40.9333 -74.2667 282° West 292 336 9,700 2,319 Climbing New York TRACON
Fri 12:33:32 PM 40.9333 -74.3833 270° West 350 403 11,100 2,678 Climbing New York TRACON
Fri 12:34:33 PM 40.9000 -74.5167 252° West 350 403 15,100 2,360 Climbing New York TRACON
Fri 12:36:02 PM 40.8511 -74.6831 249° West 372 428 17,000 1,095 Climbing New York Center
Fri 12:37:01 PM 40.7925 -74.8139 239° Southwest 379 436 17,800 1,513 Climbing New York Center
Fri 12:38:01 PM 40.7400 -74.9422 242° Southwest 385 443 20,000 2,231 Climbing New York Center
Fri 12:39:02 PM 40.6853 -75.0731 241° Southwest 391 450 22,300 2,231 Climbing New York Center
Fri 12:40:02 PM 40.6261 -75.2061 240° Southwest 407 468 24,500 2,186 Climbing New York Center
Fri 12:41:00 PM 40.5647 -75.3414 239° Southwest 423 487 26,600 2,000 Climbing New York Center
Fri 12:42:02 PM 40.5011 -75.4792 239° Southwest 435 501 28,500 1,900 Climbing New York Center
Fri 12:43:00 PM 40.4347 -75.6219 239° Southwest 440 506 30,400 1,932 Climbing New York Center
Fri 12:44:00 PM 40.3728 -75.7564 239° Southwest 445 512 32,300 1,850 Climbing New York Center
Fri 12:45:00 PM 40.3086 -75.8961 239° Southwest 445 512 34,100 1,636 Climbing New York Center
Fri 12:46:01 PM 40.2397 -76.0381 238° Southwest 459 528 35,600 1,240 Climbing New York Center
Fri 12:47:01 PM 40.1869 -76.1453 237° Southwest 454 522 36,600 1,041 Climbing New York Center
Fri 12:48:02 PM 40.1150 -76.3028 239° Southwest 454 522 37,700 1,091 Climbing New York Center
Fri 12:49:02 PM 40.0500 -76.4439 239° Southwest 454 522 38,800 711 Climbing New York Center
Fri 12:51:16 PM 39.8975 -76.7733 239° Southwest 448 516 40,000 369 Climbing Washington Center
Fri 12:52:17 PM 39.8294 -76.9153 238° Southwest 455 524 40,000  Level Washington Center
Fri 12:53:17 PM 39.7608 -77.0625 239° Southwest 468 539 40,000  Level Washington Center
Fri 12:54:16 PM 39.6944 -77.2042 239° Southwest 468 539 40,000  Level Washington Center
Fri 12:55:17 PM 39.6258 -77.3481 238° Southwest 468 539 40,000  Level Washington Center
Fri 12:56:16 PM 39.5569 -77.4917 238° Southwest 468 539 40,000  Level Washington Center
Fri 12:57:15 PM 39.4881 -77.6353 238° Southwest 468 539 40,000  Level Washington Center
Fri 12:58:16 PM 39.4208 -77.7783 239° Southwest 468 539 40,000  Level Washington Center
Fri 12:59:17 PM 39.3536 -77.9267 240° Southwest 468 539 40,000  Level Washington Center
Fri 01:00:15 PM 39.2964 -78.0722 243° Southwest 463 533 40,000  Level Washington Center
Fri 01:01:16 PM 39.2369 -78.2258 243° Southwest 469 540 40,000  Level Washington Center
Fri 01:02:16 PM 39.1750 -78.3761 242° Southwest 469 540 40,000  Level Washington Center
Fri 01:03:17 PM 39.1153 -78.5236 242° Southwest 469 540 40,000  Level Washington Center
Fri 01:04:18 PM 39.0553 -78.6764 243° Southwest 469 540 40,000 -202 Level Washington Center
Fri 01:05:16 PM 38.9969 -78.8289 244° Southwest 474 545 39,600 -908 Descending Washington Center
Fri 01:06:17 PM 38.9717 -78.9878 258° West 460 529 38,200 -1,180 Descending Washington Center
Fri 01:07:18 PM 38.9486 -79.1389 259° West 453 521 37,200 -1,068 Descending Washington Center
Fri 01:08:15 PM 38.9231 -79.2978 258° West 453 521 36,100 -1,119 Descending Washington Center
Fri 01:09:16 PM 38.8994 -79.4542 259° West 453 521 35,000 -984 Descending Washington Center
Fri 01:10:17 PM 38.8800 -79.6022 260° West 455 524 34,100 -1,109 Descending Washington Center
Fri 01:11:15 PM 38.8508 -79.7794 258° West 465 535 32,800 -1,210 Descending Washington Center
Fri 01:12:16 PM 38.8244 -79.9406 258° West 465 535 31,700 -974 Descending Washington Center
Fri 01:13:12 PM 38.8042 -80.0592 258° West 464 534 30,900 -1,119 Descending Indianapolis Center
Fri 01:14:14 PM 38.7714 -80.2522 258° West 462 532 29,500 -1,597 Descending Indianapolis Center
Fri 01:15:16 PM 38.7447 -80.4147 258° West 466 536 27,600 -1,694 Descending Indianapolis Center
Fri 01:16:18 PM 38.7181 -80.5722 258° West 454 522 26,000 -919 Descending Indianapolis Center
Fri 01:17:20 PM 38.6928 -80.7261 258° West 443 510 25,700 -871 Descending Indianapolis Center
Fri 01:18:22 PM 38.6672 -80.8803 258° West 444 511 24,200 -1,452 Descending Indianapolis Center
Fri 01:19:24 PM 38.6411 -81.0308 258° West 434 499 22,700 -1,452 Descending Indianapolis Center
Fri 01:20:26 PM 38.6161 -81.1781 258° West 424 488 21,200 -1,742 Descending Indianapolis Center
Fri 01:21:28 PM 38.5908 -81.3206 257° West 410 472 19,100 -2,274 Descending Indianapolis Center
Fri 01:22:30 PM 38.5608 -81.4928 257° West 407 468 16,500 -2,419 Descending Indianapolis Center
Fri 01:23:32 PM 38.5375 -81.6294 258° West 390 449 14,100 -2,371 Descending Indianapolis Center
Fri 01:24:34 PM 38.5142 -81.7594 257° West 373 429 11,600 -1,500 Descending Indianapolis Center
Fri 01:25:36 PM 38.4928 -81.8803 257° West 349 402 11,000 -339 Descending Indianapolis Center
Fri 01:26:38 PM 38.4708 -82.0033 257° West 353 406 10,900 -629 Descending Indianapolis Center
Fri 01:27:40 PM 38.4514 -82.1108 257° West 317 365 9,700 -1,268 Descending Indianapolis Center
Fri 01:28:41 PM 38.4331 -82.2106 257° West 293 337 8,300 -1,561 Descending Indianapolis Center
Fri 01:29:43 PM 38.4078 -82.2978 250° West 272 313 6,500 -1,839 Descending Indianapolis Center
Fri 01:30:45 PM 38.3744 -82.3894 245° Southwest 244 281 4,500 -1,645 Descending Indianapolis Center
Fri 01:31:47 PM 38.3517 -82.4558 246° West 216 249 3,100 -1,258 Descending Indianapolis Center
Fri 01:32:49 PM 38.3492 -82.5039 266° West 156 180 1,900 -823 Descending Indianapolis Center
Fri 01:33:51 PM 38.3608 -82.5386 293° West 139 160 1,400 -484 Descending Indianapolis Center
Fri 01:35:00 PM 38.3667 -82.5500 270° West  Level FlightAware Approximate
Fri 01:42:00 PM 38.3685 -82.5604 270° West  Level Estimated

Login

Don't have an account? Register now (free) for customized features, flight alerts, and more!